sensor_id;sensor_type;location;lat;lon;timestamp;P1;durP1;ratioP1;P2;durP2;ratioP2
71503;SDS011;59323;50.874;7.028;2022-09-24T00:01:13;11.20;;;4.43;;
71503;SDS011;59323;50.874;7.028;2022-09-24T00:03:41;10.17;;;5.20;;
71503;SDS011;59323;50.874;7.028;2022-09-24T00:06:11;10.95;;;5.38;;
71503;SDS011;59323;50.874;7.028;2022-09-24T00:08:40;10.27;;;5.45;;
71503;SDS011;59323;50.874;7.028;2022-09-24T00:11:05;11.90;;;5.60;;
71503;SDS011;59323;50.874;7.028;2022-09-24T00:13:33;11.68;;;5.70;;
71503;SDS011;59323;50.874;7.028;2022-09-24T00:16:26;13.83;;;6.10;;
71503;SDS011;59323;50.874;7.028;2022-09-24T00:18:52;10.30;;;5.30;;
71503;SDS011;59323;50.874;7.028;2022-09-24T00:21:20;10.80;;;5.03;;
71503;SDS011;59323;50.874;7.028;2022-09-24T00:23:48;10.23;;;5.10;;
71503;SDS011;59323;50.874;7.028;2022-09-24T00:26:15;11.00;;;4.93;;
71503;SDS011;59323;50.874;7.028;2022-09-24T00:29:00;11.40;;;4.87;;
71503;SDS011;59323;50.874;7.028;2022-09-24T00:31:25;9.77;;;5.20;;
71503;SDS011;59323;50.874;7.028;2022-09-24T00:33:51;11.97;;;5.30;;
71503;SDS011;59323;50.874;7.028;2022-09-24T00:36:18;10.88;;;5.40;;
71503;SDS011;59323;50.874;7.028;2022-09-24T00:38:47;9.52;;;4.95;;
71503;SDS011;59323;50.874;7.028;2022-09-24T00:41:14;11.88;;;5.38;;
71503;SDS011;59323;50.874;7.028;2022-09-24T00:43:40;8.63;;;4.87;;
71503;SDS011;59323;50.874;7.028;2022-09-24T00:48:40;10.85;;;4.90;;
71503;SDS011;59323;50.874;7.028;2022-09-24T00:51:08;9.90;;;4.78;;
71503;SDS011;59323;50.874;7.028;2022-09-24T00:53:38;11.07;;;5.20;;
71503;SDS011;59323;50.874;7.028;2022-09-24T00:56:04;9.43;;;4.80;;
71503;SDS011;59323;50.874;7.028;2022-09-24T00:58:33;8.93;;;4.00;;
71503;SDS011;59323;50.874;7.028;2022-09-24T01:01:05;11.57;;;4.70;;
71503;SDS011;59323;50.874;7.028;2022-09-24T01:03:31;8.77;;;4.30;;
71503;SDS011;59323;50.874;7.028;2022-09-24T01:06:03;8.23;;;4.75;;
71503;SDS011;59323;50.874;7.028;2022-09-24T01:08:29;9.50;;;4.90;;
71503;SDS011;59323;50.874;7.028;2022-09-24T01:10:59;10.20;;;5.03;;
71503;SDS011;59323;50.874;7.028;2022-09-24T01:13:52;8.95;;;4.18;;
71503;SDS011;59323;50.874;7.028;2022-09-24T01:21:57;10.00;;;4.43;;
71503;SDS011;59323;50.874;7.028;2022-09-24T01:24:45;9.80;;;5.32;;
71503;SDS011;59323;50.874;7.028;2022-09-24T01:27:29;8.95;;;4.60;;
71503;SDS011;59323;50.874;7.028;2022-09-24T01:30:09;9.07;;;3.80;;
71503;SDS011;59323;50.874;7.028;2022-09-24T01:35:22;9.00;;;4.22;;
71503;SDS011;59323;50.874;7.028;2022-09-24T01:38:00;9.55;;;4.70;;
71503;SDS011;59323;50.874;7.028;2022-09-24T01:40:29;15.38;;;5.00;;
71503;SDS011;59323;50.874;7.028;2022-09-24T01:42:56;9.00;;;4.73;;
71503;SDS011;59323;50.874;7.028;2022-09-24T01:45:23;10.15;;;5.43;;
71503;SDS011;59323;50.874;7.028;2022-09-24T01:47:54;10.25;;;4.90;;
71503;SDS011;59323;50.874;7.028;2022-09-24T01:50:19;7.75;;;4.47;;
71503;SDS011;59323;50.874;7.028;2022-09-24T01:52:55;10.67;;;4.97;;
71503;SDS011;59323;50.874;7.028;2022-09-24T01:55:26;9.65;;;4.40;;
71503;SDS011;59323;50.874;7.028;2022-09-24T01:58:02;7.43;;;4.18;;
71503;SDS011;59323;50.874;7.028;2022-09-24T02:00:33;9.95;;;4.32;;
71503;SDS011;59323;50.874;7.028;2022-09-24T02:03:11;8.55;;;4.40;;
71503;SDS011;59323;50.874;7.028;2022-09-24T02:08:20;9.52;;;4.40;;
71503;SDS011;59323;50.874;7.028;2022-09-24T02:10:52;10.60;;;4.15;;
71503;SDS011;59323;50.874;7.028;2022-09-24T02:13:22;8.23;;;3.58;;
71503;SDS011;59323;50.874;7.028;2022-09-24T02:15:51;9.00;;;4.28;;
71503;SDS011;59323;50.874;7.028;2022-09-24T02:18:22;9.57;;;4.37;;
71503;SDS011;59323;50.874;7.028;2022-09-24T02:20:53;10.48;;;4.45;;
71503;SDS011;59323;50.874;7.028;2022-09-24T02:23:20;8.32;;;3.95;;
71503;SDS011;59323;50.874;7.028;2022-09-24T02:25:54;10.55;;;4.38;;
71503;SDS011;59323;50.874;7.028;2022-09-24T02:28:22;7.85;;;4.10;;
71503;SDS011;59323;50.874;7.028;2022-09-24T02:30:49;10.80;;;5.10;;
71503;SDS011;59323;50.874;7.028;2022-09-24T02:33:23;9.85;;;4.60;;
71503;SDS011;59323;50.874;7.028;2022-09-24T02:36:08;11.70;;;4.40;;
71503;SDS011;59323;50.874;7.028;2022-09-24T02:38:36;9.25;;;4.95;;
71503;SDS011;59323;50.874;7.028;2022-09-24T02:41:01;10.03;;;4.73;;
71503;SDS011;59323;50.874;7.028;2022-09-24T02:43:27;10.15;;;4.25;;
71503;SDS011;59323;50.874;7.028;2022-09-24T02:45:53;9.63;;;4.43;;
71503;SDS011;59323;50.874;7.028;2022-09-24T02:48:18;9.23;;;4.22;;
71503;SDS011;59323;50.874;7.028;2022-09-24T02:50:44;10.60;;;4.20;;
71503;SDS011;59323;50.874;7.028;2022-09-24T02:53:10;11.27;;;4.32;;
71503;SDS011;59323;50.874;7.028;2022-09-24T02:55:35;9.37;;;4.50;;
71503;SDS011;59323;50.874;7.028;2022-09-24T02:58:00;11.23;;;4.47;;
71503;SDS011;59323;50.874;7.028;2022-09-24T03:00:26;12.60;;;5.70;;
71503;SDS011;59323;50.874;7.028;2022-09-24T03:02:52;14.00;;;5.22;;
71503;SDS011;59323;50.874;7.028;2022-09-24T03:05:18;9.87;;;5.33;;
71503;SDS011;59323;50.874;7.028;2022-09-24T03:07:43;8.57;;;4.30;;
71503;SDS011;59323;50.874;7.028;2022-09-24T03:10:09;10.87;;;5.23;;
71503;SDS011;59323;50.874;7.028;2022-09-24T03:12:35;9.15;;;4.43;;
71503;SDS011;59323;50.874;7.028;2022-09-24T03:15:01;10.03;;;5.07;;
71503;SDS011;59323;50.874;7.028;2022-09-24T03:17:27;10.33;;;5.13;;
71503;SDS011;59323;50.874;7.028;2022-09-24T03:19:53;7.90;;;4.22;;
71503;SDS011;59323;50.874;7.028;2022-09-24T03:22:18;12.20;;;5.00;;
71503;SDS011;59323;50.874;7.028;2022-09-24T03:24:44;11.37;;;5.43;;
71503;SDS011;59323;50.874;7.028;2022-09-24T03:27:09;11.10;;;5.30;;
71503;SDS011;59323;50.874;7.028;2022-09-24T03:29:35;10.73;;;4.93;;
71503;SDS011;59323;50.874;7.028;2022-09-24T03:32:19;9.77;;;5.30;;
71503;SDS011;59323;50.874;7.028;2022-09-24T03:34:44;11.13;;;6.00;;
71503;SDS011;59323;50.874;7.028;2022-09-24T03:37:09;10.83;;;5.37;;
71503;SDS011;59323;50.874;7.028;2022-09-24T03:39:35;12.43;;;5.77;;
71503;SDS011;59323;50.874;7.028;2022-09-24T03:42:00;10.67;;;5.47;;
71503;SDS011;59323;50.874;7.028;2022-09-24T03:44:25;8.70;;;4.90;;
71503;SDS011;59323;50.874;7.028;2022-09-24T03:46:52;11.63;;;5.77;;
71503;SDS011;59323;50.874;7.028;2022-09-24T03:49:17;9.82;;;5.00;;
71503;SDS011;59323;50.874;7.028;2022-09-24T03:51:43;10.20;;;5.27;;
71503;SDS011;59323;50.874;7.028;2022-09-24T03:54:08;11.03;;;4.93;;
71503;SDS011;59323;50.874;7.028;2022-09-24T03:56:34;9.57;;;5.00;;
71503;SDS011;59323;50.874;7.028;2022-09-24T03:58:59;11.63;;;5.80;;
71503;SDS011;59323;50.874;7.028;2022-09-24T04:01:24;9.53;;;5.17;;
71503;SDS011;59323;50.874;7.028;2022-09-24T04:03:50;9.20;;;4.23;;
71503;SDS011;59323;50.874;7.028;2022-09-24T04:06:15;9.33;;;4.80;;
71503;SDS011;59323;50.874;7.028;2022-09-24T04:08:41;10.45;;;4.70;;
71503;SDS011;59323;50.874;7.028;2022-09-24T04:11:06;10.03;;;5.00;;
71503;SDS011;59323;50.874;7.028;2022-09-24T04:13:32;9.80;;;4.87;;
71503;SDS011;59323;50.874;7.028;2022-09-24T04:16:01;11.20;;;5.10;;
71503;SDS011;59323;50.874;7.028;2022-09-24T04:18:27;10.90;;;5.18;;
71503;SDS011;59323;50.874;7.028;2022-09-24T04:20:58;11.30;;;4.75;;
71503;SDS011;59323;50.874;7.028;2022-09-24T04:23:24;11.00;;;5.47;;
71503;SDS011;59323;50.874;7.028;2022-09-24T04:25:49;9.95;;;5.20;;
71503;SDS011;59323;50.874;7.028;2022-09-24T04:28:15;10.27;;;4.97;;
71503;SDS011;59323;50.874;7.028;2022-09-24T04:30:40;10.67;;;5.40;;
71503;SDS011;59323;50.874;7.028;2022-09-24T04:33:05;9.63;;;5.00;;
71503;SDS011;59323;50.874;7.028;2022-09-24T04:35:32;11.18;;;5.22;;
71503;SDS011;59323;50.874;7.028;2022-09-24T04:38:00;14.50;;;5.40;;
71503;SDS011;59323;50.874;7.028;2022-09-24T04:40:26;9.32;;;5.15;;
71503;SDS011;59323;50.874;7.028;2022-09-24T04:42:51;10.63;;;4.67;;
71503;SDS011;59323;50.874;7.028;2022-09-24T04:45:17;10.10;;;5.73;;
71503;SDS011;59323;50.874;7.028;2022-09-24T04:47:44;10.00;;;4.72;;
71503;SDS011;59323;50.874;7.028;2022-09-24T04:50:25;10.38;;;4.30;;
71503;SDS011;59323;50.874;7.028;2022-09-24T04:52:53;9.07;;;4.30;;
71503;SDS011;59323;50.874;7.028;2022-09-24T04:55:19;9.70;;;4.60;;
71503;SDS011;59323;50.874;7.028;2022-09-24T04:57:45;9.38;;;4.72;;
71503;SDS011;59323;50.874;7.028;2022-09-24T05:00:11;8.60;;;4.07;;
71503;SDS011;59323;50.874;7.028;2022-09-24T05:02:39;9.68;;;4.82;;
71503;SDS011;59323;50.874;7.028;2022-09-24T05:05:05;11.77;;;4.80;;
71503;SDS011;59323;50.874;7.028;2022-09-24T05:07:31;10.15;;;4.40;;
71503;SDS011;59323;50.874;7.028;2022-09-24T05:09:56;10.40;;;4.57;;
71503;SDS011;59323;50.874;7.028;2022-09-24T05:12:22;9.13;;;4.33;;
71503;SDS011;59323;50.874;7.028;2022-09-24T05:14:47;8.90;;;4.53;;
71503;SDS011;59323;50.874;7.028;2022-09-24T05:17:13;9.27;;;4.17;;
71503;SDS011;59323;50.874;7.028;2022-09-24T05:19:38;12.90;;;4.77;;
71503;SDS011;59323;50.874;7.028;2022-09-24T05:22:03;9.57;;;5.20;;
71503;SDS011;59323;50.874;7.028;2022-09-24T05:24:29;9.52;;;4.35;;
71503;SDS011;59323;50.874;7.028;2022-09-24T05:26:54;8.97;;;4.50;;
71503;SDS011;59323;50.874;7.028;2022-09-24T05:29:35;9.07;;;4.27;;
71503;SDS011;59323;50.874;7.028;2022-09-24T05:32:06;8.63;;;4.25;;
71503;SDS011;59323;50.874;7.028;2022-09-24T05:34:33;9.32;;;5.03;;
71503;SDS011;59323;50.874;7.028;2022-09-24T05:36:59;11.10;;;5.38;;
71503;SDS011;59323;50.874;7.028;2022-09-24T05:39:25;10.97;;;4.70;;
71503;SDS011;59323;50.874;7.028;2022-09-24T05:41:50;10.98;;;5.30;;
71503;SDS011;59323;50.874;7.028;2022-09-24T05:44:16;10.10;;;4.63;;
71503;SDS011;59323;50.874;7.028;2022-09-24T05:46:46;9.85;;;4.60;;
71503;SDS011;59323;50.874;7.028;2022-09-24T05:49:12;8.35;;;4.22;;
71503;SDS011;59323;50.874;7.028;2022-09-24T05:51:37;10.43;;;5.47;;
71503;SDS011;59323;50.874;7.028;2022-09-24T05:54:02;11.40;;;5.23;;
71503;SDS011;59323;50.874;7.028;2022-09-24T05:56:28;7.90;;;4.00;;
71503;SDS011;59323;50.874;7.028;2022-09-24T05:58:53;9.23;;;4.47;;
71503;SDS011;59323;50.874;7.028;2022-09-24T06:01:19;11.77;;;5.57;;
71503;SDS011;59323;50.874;7.028;2022-09-24T06:03:44;9.60;;;4.53;;
71503;SDS011;59323;50.874;7.028;2022-09-24T06:06:10;10.33;;;4.87;;
71503;SDS011;59323;50.874;7.028;2022-09-24T06:08:35;10.60;;;4.73;;
71503;SDS011;59323;50.874;7.028;2022-09-24T06:11:02;8.63;;;4.72;;
71503;SDS011;59323;50.874;7.028;2022-09-24T06:13:30;7.70;;;4.10;;
71503;SDS011;59323;50.874;7.028;2022-09-24T06:18:36;8.38;;;4.35;;
71503;SDS011;59323;50.874;7.028;2022-09-24T06:21:10;9.90;;;5.10;;
71503;SDS011;59323;50.874;7.028;2022-09-24T06:23:37;12.23;;;5.40;;
71503;SDS011;59323;50.874;7.028;2022-09-24T06:26:03;9.47;;;4.90;;
71503;SDS011;59323;50.874;7.028;2022-09-24T06:28:31;12.38;;;5.32;;
71503;SDS011;59323;50.874;7.028;2022-09-24T06:30:58;10.25;;;5.18;;
71503;SDS011;59323;50.874;7.028;2022-09-24T06:33:24;9.45;;;4.78;;
71503;SDS011;59323;50.874;7.028;2022-09-24T06:35:50;11.93;;;5.53;;
71503;SDS011;59323;50.874;7.028;2022-09-24T06:38:16;9.83;;;4.73;;
71503;SDS011;59323;50.874;7.028;2022-09-24T06:40:47;15.20;;;5.13;;
71503;SDS011;59323;50.874;7.028;2022-09-24T06:43:13;14.40;;;5.25;;
71503;SDS011;59323;50.874;7.028;2022-09-24T06:45:41;10.23;;;5.00;;
71503;SDS011;59323;50.874;7.028;2022-09-24T06:48:10;9.52;;;5.10;;
71503;SDS011;59323;50.874;7.028;2022-09-24T06:50:41;11.60;;;5.72;;
71503;SDS011;59323;50.874;7.028;2022-09-24T06:53:08;10.48;;;4.85;;
71503;SDS011;59323;50.874;7.028;2022-09-24T06:55:34;11.32;;;5.25;;
71503;SDS011;59323;50.874;7.028;2022-09-24T06:58:09;12.27;;;5.67;;
71503;SDS011;59323;50.874;7.028;2022-09-24T07:00:42;11.85;;;5.75;;
71503;SDS011;59323;50.874;7.028;2022-09-24T07:03:16;9.68;;;4.60;;
71503;SDS011;59323;50.874;7.028;2022-09-24T07:05:49;9.07;;;4.65;;
71503;SDS011;59323;50.874;7.028;2022-09-24T07:08:15;9.57;;;5.10;;
71503;SDS011;59323;50.874;7.028;2022-09-24T07:10:43;9.93;;;4.90;;
71503;SDS011;59323;50.874;7.028;2022-09-24T07:13:10;10.90;;;5.43;;
71503;SDS011;59323;50.874;7.028;2022-09-24T07:15:39;13.35;;;5.88;;
71503;SDS011;59323;50.874;7.028;2022-09-24T07:18:05;12.95;;;5.57;;
71503;SDS011;59323;50.874;7.028;2022-09-24T07:20:30;11.43;;;5.67;;
71503;SDS011;59323;50.874;7.028;2022-09-24T07:22:57;10.40;;;5.60;;
71503;SDS011;59323;50.874;7.028;2022-09-24T07:25:25;10.23;;;4.90;;
71503;SDS011;59323;50.874;7.028;2022-09-24T07:27:51;11.55;;;5.53;;
71503;SDS011;59323;50.874;7.028;2022-09-24T07:30:16;10.87;;;5.37;;
71503;SDS011;59323;50.874;7.028;2022-09-24T07:32:42;11.57;;;5.35;;
71503;SDS011;59323;50.874;7.028;2022-09-24T07:35:10;10.97;;;5.17;;
71503;SDS011;59323;50.874;7.028;2022-09-24T07:37:39;10.80;;;4.80;;
71503;SDS011;59323;50.874;7.028;2022-09-24T07:40:04;10.17;;;5.33;;
71503;SDS011;59323;50.874;7.028;2022-09-24T07:42:30;10.55;;;4.57;;
71503;SDS011;59323;50.874;7.028;2022-09-24T07:44:58;9.68;;;5.45;;
71503;SDS011;59323;50.874;7.028;2022-09-24T07:47:31;12.85;;;5.57;;
71503;SDS011;59323;50.874;7.028;2022-09-24T07:49:58;10.80;;;5.50;;
71503;SDS011;59323;50.874;7.028;2022-09-24T07:52:24;10.37;;;5.70;;
71503;SDS011;59323;50.874;7.028;2022-09-24T07:54:49;12.93;;;6.63;;
71503;SDS011;59323;50.874;7.028;2022-09-24T07:57:35;10.73;;;5.25;;
71503;SDS011;59323;50.874;7.028;2022-09-24T08:00:28;10.63;;;4.90;;
71503;SDS011;59323;50.874;7.028;2022-09-24T08:03:17;10.88;;;4.95;;
71503;SDS011;59323;50.874;7.028;2022-09-24T08:08:42;12.17;;;5.00;;
71503;SDS011;59323;50.874;7.028;2022-09-24T08:11:26;12.55;;;5.13;;
71503;SDS011;59323;50.874;7.028;2022-09-24T08:13:55;11.55;;;5.50;;
71503;SDS011;59323;50.874;7.028;2022-09-24T08:16:21;10.57;;;5.18;;
71503;SDS011;59323;50.874;7.028;2022-09-24T08:18:48;10.77;;;5.15;;
71503;SDS011;59323;50.874;7.028;2022-09-24T08:21:13;10.13;;;5.40;;
71503;SDS011;59323;50.874;7.028;2022-09-24T08:23:39;8.67;;;4.93;;
71503;SDS011;59323;50.874;7.028;2022-09-24T08:26:06;9.02;;;5.15;;
71503;SDS011;59323;50.874;7.028;2022-09-24T08:28:31;15.35;;;5.70;;
71503;SDS011;59323;50.874;7.028;2022-09-24T08:30:58;10.37;;;4.30;;
71503;SDS011;59323;50.874;7.028;2022-09-24T08:33:24;11.15;;;5.38;;
71503;SDS011;59323;50.874;7.028;2022-09-24T08:35:50;9.65;;;4.90;;
71503;SDS011;59323;50.874;7.028;2022-09-24T08:38:16;11.25;;;5.45;;
71503;SDS011;59323;50.874;7.028;2022-09-24T08:40:42;12.43;;;6.10;;
71503;SDS011;59323;50.874;7.028;2022-09-24T08:46:00;10.82;;;4.93;;
71503;SDS011;59323;50.874;7.028;2022-09-24T08:48:47;10.13;;;5.47;;
71503;SDS011;59323;50.874;7.028;2022-09-24T08:51:18;11.35;;;5.47;;
71503;SDS011;59323;50.874;7.028;2022-09-24T08:54:19;13.85;;;5.28;;
71503;SDS011;59323;50.874;7.028;2022-09-24T08:56:40;13.18;;;5.95;;
71503;SDS011;59323;50.874;7.028;2022-09-24T08:59:13;13.30;;;5.57;;
71503;SDS011;59323;50.874;7.028;2022-09-24T09:01:57;11.57;;;6.37;;
71503;SDS011;59323;50.874;7.028;2022-09-24T09:07:18;11.38;;;5.55;;
71503;SDS011;59323;50.874;7.028;2022-09-24T09:09:55;11.65;;;5.82;;
71503;SDS011;59323;50.874;7.028;2022-09-24T09:12:26;10.63;;;5.85;;
71503;SDS011;59323;50.874;7.028;2022-09-24T09:15:02;13.83;;;6.93;;
71503;SDS011;59323;50.874;7.028;2022-09-24T09:17:49;11.98;;;5.85;;
71503;SDS011;59323;50.874;7.028;2022-09-24T09:20:20;11.95;;;5.85;;
71503;SDS011;59323;50.874;7.028;2022-09-24T09:22:52;11.10;;;6.25;;
71503;SDS011;59323;50.874;7.028;2022-09-24T09:25:25;14.13;;;5.97;;
71503;SDS011;59323;50.874;7.028;2022-09-24T09:28:01;16.30;;;8.50;;
71503;SDS011;59323;50.874;7.028;2022-09-24T09:30:43;13.88;;;7.30;;
71503;SDS011;59323;50.874;7.028;2022-09-24T09:33:32;15.65;;;7.63;;
71503;SDS011;59323;50.874;7.028;2022-09-24T09:39:17;13.88;;;7.03;;
71503;SDS011;59323;50.874;7.028;2022-09-24T09:46:45;15.57;;;8.33;;
71503;SDS011;59323;50.874;7.028;2022-09-24T09:49:17;14.93;;;7.82;;
71503;SDS011;59323;50.874;7.028;2022-09-24T09:51:44;15.38;;;7.63;;
71503;SDS011;59323;50.874;7.028;2022-09-24T09:54:12;16.17;;;8.60;;
71503;SDS011;59323;50.874;7.028;2022-09-24T09:56:47;16.10;;;8.27;;
71503;SDS011;59323;50.874;7.028;2022-09-24T09:59:17;16.60;;;7.85;;
71503;SDS011;59323;50.874;7.028;2022-09-24T10:01:49;13.23;;;7.93;;
71503;SDS011;59323;50.874;7.028;2022-09-24T10:07:07;17.85;;;10.60;;
71503;SDS011;59323;50.874;7.028;2022-09-24T10:09:33;17.10;;;9.27;;
71503;SDS011;59323;50.874;7.028;2022-09-24T10:12:05;18.48;;;9.60;;
71503;SDS011;59323;50.874;7.028;2022-09-24T10:14:56;16.73;;;8.83;;
71503;SDS011;59323;50.874;7.028;2022-09-24T10:17:34;17.10;;;8.77;;
71503;SDS011;59323;50.874;7.028;2022-09-24T10:20:46;18.23;;;9.02;;
71503;SDS011;59323;50.874;7.028;2022-09-24T10:22:55;15.85;;;8.18;;
71503;SDS011;59323;50.874;7.028;2022-09-24T10:25:25;15.27;;;8.32;;
71503;SDS011;59323;50.874;7.028;2022-09-24T10:27:53;11.73;;;5.80;;
71503;SDS011;59323;50.874;7.028;2022-09-24T10:30:57;14.77;;;8.45;;
71503;SDS011;59323;50.874;7.028;2022-09-24T10:33:36;18.63;;;8.98;;
71503;SDS011;59323;50.874;7.028;2022-09-24T10:36:35;15.70;;;8.57;;
71503;SDS011;59323;50.874;7.028;2022-09-24T10:39:13;18.17;;;9.98;;
71503;SDS011;59323;50.874;7.028;2022-09-24T10:41:48;17.57;;;10.17;;
71503;SDS011;59323;50.874;7.028;2022-09-24T10:44:15;18.73;;;10.35;;
71503;SDS011;59323;50.874;7.028;2022-09-24T10:55:47;18.43;;;10.70;;
71503;SDS011;59323;50.874;7.028;2022-09-24T10:58:31;21.52;;;10.52;;
71503;SDS011;59323;50.874;7.028;2022-09-24T11:12:08;15.90;;;8.85;;
71503;SDS011;59323;50.874;7.028;2022-09-24T11:25:30;18.83;;;9.43;;
71503;SDS011;59323;50.874;7.028;2022-09-24T11:48:02;19.35;;;9.20;;
71503;SDS011;59323;50.874;7.028;2022-09-24T11:53:42;23.08;;;10.70;;
71503;SDS011;59323;50.874;7.028;2022-09-24T11:56:15;19.90;;;9.60;;
71503;SDS011;59323;50.874;7.028;2022-09-24T11:58:52;21.55;;;11.15;;
71503;SDS011;59323;50.874;7.028;2022-09-24T12:01:27;22.95;;;11.50;;
71503;SDS011;59323;50.874;7.028;2022-09-24T12:03:59;22.10;;;10.67;;
71503;SDS011;59323;50.874;7.028;2022-09-24T12:06:31;26.13;;;12.15;;
71503;SDS011;59323;50.874;7.028;2022-09-24T12:09:12;20.23;;;10.57;;
71503;SDS011;59323;50.874;7.028;2022-09-24T12:11:46;19.75;;;9.43;;
71503;SDS011;59323;50.874;7.028;2022-09-24T12:17:19;19.90;;;8.90;;
71503;SDS011;59323;50.874;7.028;2022-09-24T12:19:54;21.35;;;10.32;;
71503;SDS011;59323;50.874;7.028;2022-09-24T12:22:25;19.02;;;9.95;;
71503;SDS011;59323;50.874;7.028;2022-09-24T12:24:53;18.75;;;9.43;;
71503;SDS011;59323;50.874;7.028;2022-09-24T12:33:10;19.77;;;10.20;;
71503;SDS011;59323;50.874;7.028;2022-09-24T12:35:58;20.40;;;9.95;;
71503;SDS011;59323;50.874;7.028;2022-09-24T12:38:31;19.85;;;10.15;;
71503;SDS011;59323;50.874;7.028;2022-09-24T12:49:18;20.55;;;9.27;;
71503;SDS011;59323;50.874;7.028;2022-09-24T12:51:57;18.55;;;8.27;;
71503;SDS011;59323;50.874;7.028;2022-09-24T12:54:34;19.33;;;9.85;;
71503;SDS011;59323;50.874;7.028;2022-09-24T12:57:15;20.57;;;8.50;;
71503;SDS011;59323;50.874;7.028;2022-09-24T12:59:50;24.27;;;9.70;;
71503;SDS011;59323;50.874;7.028;2022-09-24T13:02:21;17.40;;;9.20;;
71503;SDS011;59323;50.874;7.028;2022-09-24T13:07:34;17.63;;;8.38;;
71503;SDS011;59323;50.874;7.028;2022-09-24T13:10:17;19.03;;;9.27;;
71503;SDS011;59323;50.874;7.028;2022-09-24T13:12:47;18.52;;;9.43;;
71503;SDS011;59323;50.874;7.028;2022-09-24T13:15:25;19.73;;;9.70;;
71503;SDS011;59323;50.874;7.028;2022-09-24T13:18:03;19.05;;;9.90;;
71503;SDS011;59323;50.874;7.028;2022-09-24T13:20:39;19.40;;;8.40;;
71503;SDS011;59323;50.874;7.028;2022-09-24T13:25:56;16.42;;;7.82;;
71503;SDS011;59323;50.874;7.028;2022-09-24T13:28:27;15.93;;;7.53;;
71503;SDS011;59323;50.874;7.028;2022-09-24T13:33:48;18.67;;;8.20;;
71503;SDS011;59323;50.874;7.028;2022-09-24T13:36:37;15.18;;;7.82;;
71503;SDS011;59323;50.874;7.028;2022-09-24T13:39:16;17.90;;;8.00;;
71503;SDS011;59323;50.874;7.028;2022-09-24T13:42:07;19.10;;;9.23;;
71503;SDS011;59323;50.874;7.028;2022-09-24T13:44:40;15.15;;;7.20;;
71503;SDS011;59323;50.874;7.028;2022-09-24T13:47:15;15.85;;;7.00;;
71503;SDS011;59323;50.874;7.028;2022-09-24T13:52:44;17.25;;;8.13;;
71503;SDS011;59323;50.874;7.028;2022-09-24T13:55:19;14.37;;;7.10;;
71503;SDS011;59323;50.874;7.028;2022-09-24T13:57:56;15.77;;;7.43;;
71503;SDS011;59323;50.874;7.028;2022-09-24T14:00:25;14.85;;;7.70;;
71503;SDS011;59323;50.874;7.028;2022-09-24T14:05:52;13.98;;;6.75;;
71503;SDS011;59323;50.874;7.028;2022-09-24T14:08:21;14.07;;;7.80;;
71503;SDS011;59323;50.874;7.028;2022-09-24T14:10:49;14.63;;;7.70;;
71503;SDS011;59323;50.874;7.028;2022-09-24T14:13:20;15.98;;;8.88;;
71503;SDS011;59323;50.874;7.028;2022-09-24T14:18:18;17.42;;;9.70;;
71503;SDS011;59323;50.874;7.028;2022-09-24T14:20:44;16.63;;;8.47;;
71503;SDS011;59323;50.874;7.028;2022-09-24T14:23:15;18.30;;;10.32;;
71503;SDS011;59323;50.874;7.028;2022-09-24T14:25:45;17.17;;;8.43;;
71503;SDS011;59323;50.874;7.028;2022-09-24T14:28:16;15.55;;;8.23;;
71503;SDS011;59323;50.874;7.028;2022-09-24T14:30:47;16.75;;;8.82;;
71503;SDS011;59323;50.874;7.028;2022-09-24T14:33:16;19.10;;;9.43;;
71503;SDS011;59323;50.874;7.028;2022-09-24T14:35:48;14.57;;;8.23;;
71503;SDS011;59323;50.874;7.028;2022-09-24T14:38:17;16.00;;;8.00;;
71503;SDS011;59323;50.874;7.028;2022-09-24T14:40:47;16.33;;;8.77;;
71503;SDS011;59323;50.874;7.028;2022-09-24T14:45:58;18.23;;;9.33;;
71503;SDS011;59323;50.874;7.028;2022-09-24T14:48:45;17.70;;;9.15;;
71503;SDS011;59323;50.874;7.028;2022-09-24T14:51:20;16.83;;;8.98;;
71503;SDS011;59323;50.874;7.028;2022-09-24T14:53:56;18.48;;;8.95;;
71503;SDS011;59323;50.874;7.028;2022-09-24T14:56:43;18.77;;;9.75;;
71503;SDS011;59323;50.874;7.028;2022-09-24T14:59:14;16.10;;;9.23;;
71503;SDS011;59323;50.874;7.028;2022-09-24T15:01:54;17.92;;;9.85;;
71503;SDS011;59323;50.874;7.028;2022-09-24T15:04:39;16.27;;;8.33;;
71503;SDS011;59323;50.874;7.028;2022-09-24T15:07:17;16.25;;;8.48;;
71503;SDS011;59323;50.874;7.028;2022-09-24T15:09:49;16.23;;;9.07;;
71503;SDS011;59323;50.874;7.028;2022-09-24T15:12:21;17.55;;;9.02;;
71503;SDS011;59323;50.874;7.028;2022-09-24T15:15:29;14.43;;;8.18;;
71503;SDS011;59323;50.874;7.028;2022-09-24T15:17:46;12.70;;;6.93;;
71503;SDS011;59323;50.874;7.028;2022-09-24T15:20:12;13.00;;;7.38;;
71503;SDS011;59323;50.874;7.028;2022-09-24T15:22:37;15.57;;;9.47;;
71503;SDS011;59323;50.874;7.028;2022-09-24T15:25:05;16.88;;;9.35;;
71503;SDS011;59323;50.874;7.028;2022-09-24T15:27:42;16.42;;;8.45;;
71503;SDS011;59323;50.874;7.028;2022-09-24T15:30:10;16.87;;;9.57;;
71503;SDS011;59323;50.874;7.028;2022-09-24T15:32:44;17.02;;;8.43;;
71503;SDS011;59323;50.874;7.028;2022-09-24T15:35:12;16.30;;;9.10;;
71503;SDS011;59323;50.874;7.028;2022-09-24T15:37:39;15.95;;;8.88;;
71503;SDS011;59323;50.874;7.028;2022-09-24T15:40:06;17.80;;;9.52;;
71503;SDS011;59323;50.874;7.028;2022-09-24T15:42:55;18.27;;;9.17;;
71503;SDS011;59323;50.874;7.028;2022-09-24T15:45:21;16.85;;;8.52;;
71503;SDS011;59323;50.874;7.028;2022-09-24T15:47:50;18.80;;;9.87;;
71503;SDS011;59323;50.874;7.028;2022-09-24T15:50:18;17.25;;;8.65;;
71503;SDS011;59323;50.874;7.028;2022-09-24T15:52:46;16.70;;;8.82;;
71503;SDS011;59323;50.874;7.028;2022-09-24T15:55:15;15.32;;;8.38;;
71503;SDS011;59323;50.874;7.028;2022-09-24T15:57:43;15.00;;;7.57;;
71503;SDS011;59323;50.874;7.028;2022-09-24T16:00:19;13.77;;;8.07;;
71503;SDS011;59323;50.874;7.028;2022-09-24T16:02:49;16.98;;;8.68;;
71503;SDS011;59323;50.874;7.028;2022-09-24T16:05:17;14.55;;;7.47;;
71503;SDS011;59323;50.874;7.028;2022-09-24T16:07:44;15.20;;;8.43;;
71503;SDS011;59323;50.874;7.028;2022-09-24T16:10:10;13.57;;;7.53;;
71503;SDS011;59323;50.874;7.028;2022-09-24T16:12:37;14.85;;;8.23;;
71503;SDS011;59323;50.874;7.028;2022-09-24T16:15:03;14.95;;;8.27;;
71503;SDS011;59323;50.874;7.028;2022-09-24T16:17:29;15.20;;;7.60;;
71503;SDS011;59323;50.874;7.028;2022-09-24T16:19:55;12.93;;;7.27;;
71503;SDS011;59323;50.874;7.028;2022-09-24T16:22:20;14.13;;;7.47;;
71503;SDS011;59323;50.874;7.028;2022-09-24T16:24:46;12.73;;;6.95;;
71503;SDS011;59323;50.874;7.028;2022-09-24T16:27:11;12.97;;;6.60;;
71503;SDS011;59323;50.874;7.028;2022-09-24T16:29:36;13.90;;;7.27;;
71503;SDS011;59323;50.874;7.028;2022-09-24T16:32:02;13.73;;;7.03;;
71503;SDS011;59323;50.874;7.028;2022-09-24T16:34:27;14.75;;;7.70;;
71503;SDS011;59323;50.874;7.028;2022-09-24T16:36:53;13.15;;;7.03;;
71503;SDS011;59323;50.874;7.028;2022-09-24T16:39:19;13.57;;;6.50;;
71503;SDS011;59323;50.874;7.028;2022-09-24T16:41:48;13.93;;;6.93;;
71503;SDS011;59323;50.874;7.028;2022-09-24T16:44:14;15.77;;;7.72;;
71503;SDS011;59323;50.874;7.028;2022-09-24T16:46:40;13.00;;;7.00;;
71503;SDS011;59323;50.874;7.028;2022-09-24T16:49:06;15.67;;;7.33;;
71503;SDS011;59323;50.874;7.028;2022-09-24T16:51:31;13.55;;;7.07;;
71503;SDS011;59323;50.874;7.028;2022-09-24T16:53:57;14.90;;;6.87;;
71503;SDS011;59323;50.874;7.028;2022-09-24T16:56:22;12.93;;;6.73;;
71503;SDS011;59323;50.874;7.028;2022-09-24T16:58:48;13.15;;;7.00;;
71503;SDS011;59323;50.874;7.028;2022-09-24T17:01:15;14.15;;;6.57;;